Time;durP1;ratioP1;P1;durP2;ratioP2;P2;SDS_P1;SDS_P2;PMS_P1;PMS_P2;Temp;Humidity;BMP_temperature;BMP_pressure;BME280_temperature;BME280_humidity;BME280_pressure;Samples;Min_cycle;Max_cycle;Signal;HPM_P1;HPM_P2
2022/03/24 06:00:09;;;;;;;21.30;19.00;;;7.00;97.20;;;;;;1701073;29;20190;-71
2022/03/24 06:01:00;;;;;;;23.52;19.75;;;7.00;97.20;;;;;;1701323;29;20215;-71
2022/03/24 06:01:52;;;;;;;24.70;22.03;;;7.00;97.20;;;;;;1701124;29;20199;-71
2022/03/24 06:02:43;;;;;;;21.73;19.40;;;7.00;97.20;;;;;;1701351;29;20815;-71
2022/03/24 06:03:35;;;;;;;22.83;20.38;;;7.10;97.20;;;;;;1701424;29;20203;-71
2022/03/24 06:04:27;;;;;;;22.30;20.10;;;7.10;97.20;;;;;;1701279;29;20693;-71
2022/03/24 06:05:20;;;;;;;22.63;20.25;;;7.10;97.20;;;;;;1701382;29;20223;-71
2022/03/24 06:06:11;;;;;;;20.73;18.63;;;7.10;97.20;;;;;;1701002;29;20208;-71
2022/03/24 06:07:03;;;;;;;23.00;20.60;;;7.10;97.20;;;;;;1701091;29;20203;-71
2022/03/24 06:07:55;;;;;;;22.40;20.00;;;7.10;97.20;;;;;;1701421;29;20541;-71
2022/03/24 06:08:47;;;;;;;26.35;20.25;;;7.10;97.20;;;;;;1700937;29;20204;-71
2022/03/24 06:09:38;;;;;;;19.75;17.75;;;7.10;97.20;;;;;;1701381;29;20753;-71
2022/03/24 06:10:32;;;;;;;21.10;18.83;;;7.10;97.20;;;;;;1701345;29;20203;-71
2022/03/24 06:11:24;;;;;;;21.15;19.05;;;7.10;97.20;;;;;;1701362;29;20673;-71
2022/03/24 06:12:15;;;;;;;24.50;19.92;;;7.10;97.20;;;;;;1694738;29;20192;-71
2022/03/24 06:13:06;;;;;;;22.45;19.85;;;7.10;97.20;;;;;;1694722;29;20747;-72
2022/03/24 06:13:58;;;;;;;21.30;19.00;;;7.10;97.20;;;;;;1694618;29;20626;-71
2022/03/24 06:14:51;;;;;;;24.13;20.77;;;7.10;97.20;;;;;;1694247;29;20273;-71
2022/03/24 06:15:45;;;;;;;22.98;20.25;;;7.10;97.20;;;;;;1694605;29;20208;-71
2022/03/24 06:16:38;;;;;;;21.30;19.17;;;7.20;97.20;;;;;;1701374;29;20573;-71
2022/03/24 06:17:29;;;;;;;20.92;18.33;;;7.20;97.20;;;;;;1701176;29;20293;-71
2022/03/24 06:18:20;;;;;;;20.70;18.50;;;7.20;97.20;;;;;;1700750;29;20675;-71
2022/03/24 06:19:12;;;;;;;22.13;19.00;;;7.30;97.20;;;;;;1701449;29;20203;-71
2022/03/24 06:20:03;;;;;;;22.80;20.45;;;7.30;97.20;;;;;;1707811;29;20586;-71
2022/03/24 06:20:55;;;;;;;21.80;19.42;;;7.30;97.20;;;;;;1707865;29;20797;-71
2022/03/24 06:21:46;;;;;;;21.40;19.17;;;7.40;97.20;;;;;;1707755;29;20238;-71
2022/03/24 06:22:43;;;;;;;21.47;19.37;;;7.40;97.20;;;;;;1707841;29;20199;-71
2022/03/24 06:23:33;;;;;;;21.88;19.00;;;7.50;97.20;;;;;;1694717;29;20452;-70
2022/03/24 06:24:25;;;;;;;21.33;19.10;;;7.50;97.20;;;;;;1694668;29;20200;-71
2022/03/24 06:25:16;;;;;;;22.20;19.80;;;7.50;97.20;;;;;;1694734;29;20232;-71
2022/03/24 06:26:08;;;;;;;23.33;19.85;;;7.50;97.20;;;;;;1698528;29;20195;-71
2022/03/24 06:26:59;;;;;;;22.90;20.58;;;7.60;97.20;;;;;;1701257;29;20215;-71
2022/03/24 06:27:51;;;;;;;21.55;19.13;;;7.60;97.20;;;;;;1701103;29;20258;-71
2022/03/24 06:28:42;;;;;;;23.75;20.08;;;7.60;97.20;;;;;;1701067;29;20690;-71
2022/03/24 06:29:33;;;;;;;22.87;20.47;;;7.60;97.20;;;;;;1701164;29;20614;-71
2022/03/24 06:30:25;;;;;;;24.05;20.23;;;7.60;97.20;;;;;;1700797;29;20226;-71
2022/03/24 06:31:18;;;;;;;22.75;19.20;;;7.60;97.20;;;;;;1700532;29;20206;-71
2022/03/24 06:32:10;;;;;;;23.33;20.92;;;7.60;97.20;;;;;;1700387;29;20207;-71
2022/03/24 06:33:01;;;;;;;25.77;21.48;;;7.60;97.20;;;;;;1700460;29;20334;-71
2022/03/24 06:33:53;;;;;;;23.20;20.47;;;7.60;97.20;;;;;;1700542;29;20209;-71
2022/03/24 06:34:46;;;;;;;22.35;19.95;;;7.60;97.20;;;;;;1700692;29;20483;-71
2022/03/24 06:35:38;;;;;;;22.48;20.17;;;7.70;97.20;;;;;;1700353;29;20207;-72
2022/03/24 06:36:29;;;;;;;22.02;19.63;;;7.70;97.20;;;;;;1700310;29;20621;-71
2022/03/24 06:37:20;;;;;;;23.40;20.00;;;7.80;97.20;;;;;;1700940;29;20243;-71
2022/03/24 06:38:12;;;;;;;24.73;20.50;;;7.80;97.20;;;;;;1700586;29;20203;-71
2022/03/24 06:39:04;;;;;;;22.75;20.30;;;7.90;97.20;;;;;;1701087;29;20207;-72
2022/03/24 06:39:56;;;;;;;23.30;20.77;;;8.00;97.20;;;;;;1701069;29;20199;-71
2022/03/24 06:40:47;;;;;;;22.73;20.42;;;8.00;97.20;;;;;;1701145;29;20200;-71
2022/03/24 06:41:38;;;;;;;23.10;19.73;;;8.10;97.20;;;;;;1701309;29;20203;-71
2022/03/24 06:42:29;;;;;;;22.55;20.23;;;8.10;97.20;;;;;;1701133;29;20681;-71
2022/03/24 06:43:22;;;;;;;22.27;19.97;;;8.20;97.20;;;;;;1701252;29;20674;-71
2022/03/24 06:44:12;;;;;;;22.67;20.27;;;8.20;97.20;;;;;;1701059;29;20203;-71
2022/03/24 06:45:06;;;;;;;22.17;19.80;;;8.20;97.20;;;;;;1700792;29;20318;-72
2022/03/24 06:45:57;;;;;;;22.83;20.52;;;8.30;97.20;;;;;;1694563;29;20200;-71
2022/03/24 06:46:50;;;;;;;23.02;20.65;;;8.40;97.20;;;;;;1694516;29;20203;-71
2022/03/24 06:47:42;;;;;;;22.65;20.33;;;8.40;97.20;;;;;;1699948;29;20580;-71
2022/03/24 06:48:34;;;;;;;23.05;20.75;;;8.40;97.20;;;;;;1700701;29;20205;-71
2022/03/24 06:49:25;;;;;;;24.50;21.25;;;8.50;97.20;;;;;;1700865;29;20358;-71
2022/03/24 06:50:17;;;;;;;22.27;19.83;;;8.50;97.20;;;;;;1701083;29;20258;-72
2022/03/24 06:51:08;;;;;;;22.42;20.13;;;8.60;97.20;;;;;;1700646;29;20234;-72
2022/03/24 06:51:59;;;;;;;23.45;20.90;;;8.70;97.20;;;;;;1701117;29;20199;-72
2022/03/24 06:52:50;;;;;;;22.42;20.23;;;8.80;97.20;;;;;;1700921;29;20207;-71
2022/03/24 06:53:42;;;;;;;24.10;21.50;;;8.80;97.20;;;;;;1701074;29;20526;-72
2022/03/24 06:54:33;;;;;;;23.92;19.98;;;8.90;97.20;;;;;;1700999;29;20206;-71
2022/03/24 06:55:24;;;;;;;23.20;20.43;;;9.00;97.20;;;;;;1703022;29;21728;-72
2022/03/24 06:56:15;;;;;;;24.73;21.38;;;9.00;97.20;;;;;;1707733;29;20979;-71
2022/03/24 06:57:07;;;;;;;24.00;20.33;;;9.10;97.20;;;;;;1707693;29;20648;-72
2022/03/24 06:57:58;;;;;;;23.13;20.85;;;9.20;97.20;;;;;;1707689;29;20333;-71
2022/03/24 06:58:50;;;;;;;22.13;19.73;;;9.30;97.20;;;;;;1707276;29;20238;-71
2022/03/24 06:59:41;;;;;;;22.90;20.60;;;9.30;97.20;;;;;;1707580;29;20454;-72
2022/03/24 07:00:33;;;;;;;22.00;19.57;;;9.40;97.20;;;;;;1707675;29;20202;-71
2022/03/24 07:01:23;;;;;;;22.95;20.67;;;9.50;97.10;;;;;;1707556;29;20482;-72
2022/03/24 07:02:16;;;;;;;25.63;21.80;;;9.50;97.00;;;;;;1707588;29;20202;-71
2022/03/24 07:03:07;;;;;;;22.85;20.55;;;9.60;96.70;;;;;;1707579;29;20677;-72
2022/03/24 07:03:59;;;;;;;22.83;20.03;;;9.60;96.40;;;;;;1707580;29;20673;-72
2022/03/24 07:04:50;;;;;;;23.00;20.52;;;9.60;96.10;;;;;;1707492;29;20234;-71
2022/03/24 07:05:41;;;;;;;23.60;21.27;;;9.70;95.90;;;;;;1702575;29;20205;-72
2022/03/24 07:06:32;;;;;;;23.83;20.95;;;9.70;95.60;;;;;;1700928;29;20203;-72
2022/03/24 07:07:25;;;;;;;24.00;21.38;;;9.70;95.50;;;;;;1700990;29;20670;-71
2022/03/24 07:08:16;;;;;;;24.10;21.05;;;9.70;95.70;;;;;;1700706;29;20207;-72
2022/03/24 07:09:07;;;;;;;21.50;19.40;;;9.70;95.70;;;;;;1700864;29;20207;-71
2022/03/24 07:09:58;;;;;;;22.95;20.33;;;9.80;95.70;;;;;;1700953;29;20290;-72
2022/03/24 07:10:50;;;;;;;23.90;21.40;;;9.80;95.70;;;;;;1700997;29;20210;-72
2022/03/24 07:11:41;;;;;;;21.38;19.17;;;9.90;96.10;;;;;;1701014;29;20748;-72
2022/03/24 07:12:33;;;;;;;22.27;19.97;;;9.90;96.30;;;;;;1700978;29;20589;-71
2022/03/24 07:13:24;;;;;;;22.30;19.90;;;10.00;96.00;;;;;;1700915;29;20669;-71
2022/03/24 07:14:15;;;;;;;26.70;20.60;;;10.00;96.30;;;;;;1701061;29;20572;-71
2022/03/24 07:15:08;;;;;;;22.77;20.38;;;10.10;96.30;;;;;;1700577;29;20522;-72
2022/03/24 07:16:00;;;;;;;23.80;20.30;;;10.20;96.20;;;;;;1700495;29;20262;-72
2022/03/24 07:16:51;;;;;;;22.73;20.33;;;10.30;96.00;;;;;;1700907;29;20214;-71
2022/03/24 07:17:44;;;;;;;23.50;20.17;;;10.40;95.30;;;;;;1700872;29;20226;-72
2022/03/24 07:18:35;;;;;;;22.48;20.08;;;10.40;95.20;;;;;;1700553;29;20203;-71
2022/03/24 07:19:27;;;;;;;23.40;20.90;;;10.50;94.60;;;;;;1700847;29;20199;-72
2022/03/24 07:20:18;;;;;;;22.30;19.98;;;10.60;94.20;;;;;;1700938;29;20203;-71
2022/03/24 07:21:10;;;;;;;23.60;21.10;;;10.60;93.70;;;;;;1700874;29;20207;-71
2022/03/24 07:22:02;;;;;;;21.17;18.90;;;10.70;93.20;;;;;;1700841;29;20455;-72
2022/03/24 07:22:57;;;;;;;20.90;18.70;;;10.70;93.20;;;;;;1700870;29;20286;-71
2022/03/24 07:23:48;;;;;;;23.02;19.58;;;10.80;93.30;;;;;;1700920;29;20331;-71
2022/03/24 07:24:40;;;;;;;21.87;19.57;;;10.80;93.50;;;;;;1700926;29;20253;-72
2022/03/24 07:25:31;;;;;;;23.73;20.85;;;10.90;93.40;;;;;;1700700;29;20195;-72
2022/03/24 07:26:23;;;;;;;21.83;19.60;;;11.00;93.40;;;;;;1700739;29;20213;-72
2022/03/24 07:27:14;;;;;;;24.25;20.75;;;11.10;93.30;;;;;;1700587;29;20230;-71
2022/03/24 07:28:07;;;;;;;27.35;20.85;;;11.20;93.10;;;;;;1700498;29;20214;-72
2022/03/24 07:28:58;;;;;;;22.13;19.83;;;11.30;93.00;;;;;;1700891;29;20204;-72
2022/03/24 07:29:49;;;;;;;22.93;20.67;;;11.40;93.00;;;;;;1701073;29;20199;-71
2022/03/24 07:30:42;;;;;;;24.63;22.00;;;11.40;92.60;;;;;;1701147;29;20254;-71
2022/03/24 07:31:33;;;;;;;22.73;20.42;;;11.50;92.60;;;;;;1701188;29;20227;-71
2022/03/24 07:32:26;;;;;;;22.90;20.60;;;11.60;92.80;;;;;;1700934;29;20290;-71
2022/03/24 07:33:20;;;;;;;23.92;21.42;;;11.70;92.70;;;;;;1700829;29;20745;-71
2022/03/24 07:34:11;;;;;;;23.35;20.90;;;11.80;92.40;;;;;;1700908;29;20277;-71
2022/03/24 07:35:04;;;;;;;23.05;20.58;;;11.90;92.10;;;;;;1701068;29;20258;-71
2022/03/24 07:35:56;;;;;;;22.20;19.90;;;12.00;91.80;;;;;;1700914;29;20199;-71
2022/03/24 07:36:47;;;;;;;22.15;19.95;;;12.00;91.20;;;;;;1701058;29;20465;-71
2022/03/24 07:37:38;;;;;;;22.25;20.05;;;12.10;90.90;;;;;;1700911;29;20202;-71
2022/03/24 07:38:29;;;;;;;22.55;20.13;;;12.20;90.30;;;;;;1700466;29;20207;-71
2022/03/24 07:39:21;;;;;;;22.13;19.53;;;12.20;90.20;;;;;;1701050;29;20209;-71
2022/03/24 07:40:12;;;;;;;24.02;19.70;;;12.30;90.10;;;;;;1701091;29;20218;-71
2022/03/24 07:41:04;;;;;;;23.37;19.10;;;12.30;89.80;;;;;;1701148;29;20199;-71
2022/03/24 07:41:54;;;;;;;23.05;19.75;;;12.40;89.20;;;;;;1700894;29;20494;-72
2022/03/24 07:42:46;;;;;;;23.10;20.67;;;12.50;88.80;;;;;;1700771;29;20199;-71
2022/03/24 07:43:37;;;;;;;24.08;21.17;;;12.50;88.10;;;;;;1700772;29;20720;-72
2022/03/24 07:44:29;;;;;;;23.00;20.60;;;12.50;87.70;;;;;;1700767;29;20666;-71
2022/03/24 07:45:22;;;;;;;23.02;19.33;;;12.60;87.40;;;;;;1700459;29;20994;-71
2022/03/24 07:46:13;;;;;;;24.17;19.98;;;12.60;87.30;;;;;;1700695;29;20550;-72
2022/03/24 07:47:05;;;;;;;22.53;20.13;;;12.60;87.40;;;;;;1700471;29;20274;-72
2022/03/24 07:48:12;;;;;;;22.10;19.85;;;12.70;87.20;;;;;;1700828;29;20451;-72
2022/03/24 07:49:05;;;;;;;21.60;19.40;;;12.70;87.40;;;;;;1694122;29;20290;-72
2022/03/24 07:49:56;;;;;;;21.20;18.83;;;12.80;87.90;;;;;;1694157;29;20215;-71
2022/03/24 07:50:49;;;;;;;26.73;20.40;;;12.80;88.40;;;;;;1694316;29;20282;-71
2022/03/24 07:51:41;;;;;;;27.70;21.50;;;12.90;88.80;;;;;;1694278;29;20576;-71
2022/03/24 07:52:33;;;;;;;23.67;21.17;;;12.90;88.80;;;;;;1694161;29;20207;-71
2022/03/24 07:53:38;;;;;;;25.00;22.15;;;13.00;88.80;;;;;;1694284;29;20204;-71
2022/03/24 07:54:46;;;;;;;24.08;21.45;;;13.00;88.80;;;;;;1694216;29;20201;-71
2022/03/24 07:55:38;;;;;;;24.20;20.95;;;13.10;88.80;;;;;;1699118;29;20203;-71
2022/03/24 07:56:31;;;;;;;23.52;21.02;;;13.10;88.90;;;;;;1702279;29;20203;-71
2022/03/24 07:57:22;;;;;;;24.98;20.10;;;13.20;89.00;;;;;;1702040;29;20233;-71
2022/03/24 07:58:15;;;;;;;24.23;20.97;;;13.20;89.00;;;;;;1701783;29;20207;-71
2022/03/24 07:59:07;;;;;;;23.33;20.77;;;13.30;89.00;;;;;;1702439;29;20455;-71
2022/03/24 07:59:58;;;;;;;24.70;21.52;;;13.30;88.70;;;;;;1700716;29;20597;-72
2022/03/24 08:00:50;;;;;;;23.33;20.90;;;13.40;88.40;;;;;;1700706;29;20306;-72
2022/03/24 08:01:42;;;;;;;23.58;21.13;;;13.40;88.30;;;;;;1700664;29;20249;-72
2022/03/24 08:02:42;;;;;;;24.50;21.95;;;13.50;88.30;;;;;;1700699;29;20238;-72
2022/03/24 08:03:35;;;;;;;27.38;21.55;;;13.50;88.20;;;;;;1700688;29;20286;-72
2022/03/24 08:04:27;;;;;;;25.63;21.20;;;13.60;88.10;;;;;;1700625;29;20214;-71
2022/03/24 08:05:18;;;;;;;24.05;21.65;;;13.70;88.10;;;;;;1700369;29;20699;-72
2022/03/24 08:06:10;;;;;;;24.05;21.58;;;13.70;88.10;;;;;;1700227;29;20207;-72
2022/03/24 08:07:01;;;;;;;23.23;20.83;;;13.80;88.10;;;;;;1700654;29;20226;-71
2022/03/24 08:07:54;;;;;;;25.00;21.10;;;13.80;88.00;;;;;;1700693;29;20195;-72
2022/03/24 08:08:44;;;;;;;24.80;22.20;;;13.90;88.00;;;;;;1700482;29;20616;-72
2022/03/24 08:09:36;;;;;;;24.17;21.50;;;14.00;87.80;;;;;;1700614;29;20203;-71
2022/03/24 08:10:27;;;;;;;25.17;22.63;;;14.10;87.80;;;;;;1700628;29;20203;-72
2022/03/24 08:11:19;;;;;;;25.90;22.00;;;14.20;87.60;;;;;;1700639;29;20199;-72
2022/03/24 08:12:10;;;;;;;24.10;21.48;;;14.20;87.40;;;;;;1700586;29;20242;-72
2022/03/24 08:13:03;;;;;;;28.10;23.20;;;14.30;87.30;;;;;;1700674;29;20635;-72
2022/03/24 08:13:56;;;;;;;24.50;21.98;;;14.40;87.30;;;;;;1700620;29;20207;-72
2022/03/24 08:14:47;;;;;;;24.08;21.20;;;14.40;87.20;;;;;;1700393;29;20211;-71
2022/03/24 08:15:39;;;;;;;23.17;20.87;;;14.50;87.20;;;;;;1700348;29;20218;-72
2022/03/24 08:16:31;;;;;;;23.75;21.27;;;14.70;87.40;;;;;;1700532;29;20204;-71
2022/03/24 08:17:21;;;;;;;24.92;21.90;;;14.80;87.60;;;;;;1700669;29;20211;-72
2022/03/24 08:18:14;;;;;;;24.80;22.40;;;14.90;86.80;;;;;;1700331;29;20225;-72
2022/03/24 08:19:05;;;;;;;25.92;22.65;;;15.00;85.90;;;;;;1700656;29;20913;-71
2022/03/24 08:19:58;;;;;;;24.97;21.87;;;15.10;85.70;;;;;;1700681;29;20696;-72
2022/03/24 08:20:51;;;;;;;29.35;21.67;;;15.10;85.50;;;;;;1700624;29;20210;-72
2022/03/24 08:21:42;;;;;;;24.25;20.92;;;15.20;85.30;;;;;;1700677;29;20218;-72
2022/03/24 08:22:33;;;;;;;25.93;21.23;;;15.30;85.40;;;;;;1700687;29;20203;-72
2022/03/24 08:23:24;;;;;;;23.45;21.02;;;15.50;85.50;;;;;;1700614;29;20537;-71
2022/03/24 08:24:16;;;;;;;26.93;23.10;;;15.60;85.40;;;;;;1700607;29;20206;-72
2022/03/24 08:25:09;;;;;;;25.35;21.17;;;15.70;85.20;;;;;;1700219;29;20293;-72
2022/03/24 08:26:00;;;;;;;24.70;20.00;;;15.80;84.90;;;;;;1700685;29;20275;-72
2022/03/24 08:26:51;;;;;;;25.50;22.17;;;15.90;84.60;;;;;;1700675;29;20660;-72
2022/03/24 08:27:43;;;;;;;22.90;20.40;;;16.00;84.30;;;;;;1700713;29;20580;-72
2022/03/24 08:28:33;;;;;;;23.80;21.08;;;16.10;83.60;;;;;;1700285;29;20238;-71
2022/03/24 08:29:25;;;;;;;29.90;22.63;;;16.20;83.10;;;;;;1700557;29;20206;-72
2022/03/24 08:30:16;;;;;;;29.20;21.95;;;16.30;83.30;;;;;;1700659;29;20239;-71
2022/03/24 08:31:07;;;;;;;28.70;23.33;;;16.30;83.30;;;;;;1700544;29;20199;-71
2022/03/24 08:31:58;;;;;;;28.77;22.63;;;16.40;83.30;;;;;;1700641;29;20286;-72
2022/03/24 08:32:50;;;;;;;29.40;21.87;;;16.50;83.50;;;;;;1700616;29;20207;-72
2022/03/24 08:33:41;;;;;;;39.08;25.90;;;16.60;83.50;;;;;;1700720;29;20674;-72
2022/03/24 08:34:32;;;;;;;33.57;23.83;;;16.70;83.70;;;;;;1700583;29;20575;-72
2022/03/24 08:35:25;;;;;;;28.65;22.20;;;16.80;83.70;;;;;;1700152;29;20698;-71
2022/03/24 08:36:17;;;;;;;35.47;23.05;;;16.90;83.90;;;;;;1700620;29;20670;-71
2022/03/24 08:37:07;;;;;;;35.63;22.40;;;17.00;84.10;;;;;;1700637;29;20210;-71
2022/03/24 08:37:59;;;;;;;39.47;23.17;;;17.10;84.30;;;;;;1700632;29;20199;-72
2022/03/24 08:38:51;;;;;;;35.03;23.58;;;17.10;84.20;;;;;;1700756;29;20207;-71
2022/03/24 08:39:42;;;;;;;32.67;22.15;;;17.20;84.20;;;;;;1701828;29;20238;-71
2022/03/24 08:40:34;;;;;;;33.50;24.30;;;17.30;84.20;;;;;;1701896;29;20478;-71
2022/03/24 08:41:24;;;;;;;28.77;24.08;;;17.40;84.20;;;;;;1701905;29;20653;-71
2022/03/24 08:42:16;;;;;;;33.90;24.90;;;17.50;83.70;;;;;;1701933;29;20202;-72
2022/03/24 08:43:07;;;;;;;28.77;23.27;;;17.60;83.40;;;;;;1701900;29;20242;-72
2022/03/24 08:43:59;;;;;;;34.80;22.75;;;17.70;83.30;;;;;;1701869;29;20233;-72
2022/03/24 08:44:50;;;;;;;32.90;24.40;;;17.80;82.90;;;;;;1701705;29;20580;-72
2022/03/24 08:45:41;;;;;;;37.43;22.80;;;17.90;82.50;;;;;;1701629;29;20191;-71
2022/03/24 08:46:32;;;;;;;27.05;23.90;;;17.90;82.70;;;;;;1701878;29;20241;-72
2022/03/24 08:47:24;;;;;;;27.90;22.67;;;18.00;82.60;;;;;;1701909;29;20206;-72
2022/03/24 08:48:15;;;;;;;30.23;23.58;;;18.10;82.50;;;;;;1701507;29;20202;-72
2022/03/24 08:49:07;;;;;;;30.00;23.80;;;18.20;82.20;;;;;;1701770;29;20290;-72
2022/03/24 08:49:58;;;;;;;29.70;25.00;;;18.20;81.80;;;;;;1701829;29;20246;-71
2022/03/24 08:50:51;;;;;;;32.90;24.03;;;18.30;81.70;;;;;;1701840;29;20207;-72
2022/03/24 08:51:41;;;;;;;27.25;22.83;;;18.40;81.60;;;;;;1701885;29;20240;-72
2022/03/24 08:52:35;;;;;;;25.83;22.87;;;18.50;81.70;;;;;;1701842;29;20203;-72
2022/03/24 08:53:27;;;;;;;36.55;23.63;;;18.60;81.10;;;;;;1701814;29;20233;-72
2022/03/24 08:54:17;;;;;;;27.83;23.90;;;18.70;80.70;;;;;;1701800;29;20211;-72
2022/03/24 08:55:13;;;;;;;27.40;24.50;;;18.80;80.20;;;;;;1701445;29;20698;-72
2022/03/24 08:56:05;;;;;;;26.25;23.42;;;18.80;79.80;;;;;;1699893;29;20214;-72
2022/03/24 08:56:56;;;;;;;26.92;23.55;;;18.90;78.30;;;;;;1701744;29;20203;-72
2022/03/24 08:57:48;;;;;;;30.38;23.83;;;18.90;78.30;;;;;;1701858;29;20199;-72
2022/03/24 08:58:39;;;;;;;30.40;22.30;;;18.90;78.00;;;;;;1701424;29;20267;-72
2022/03/24 08:59:32;;;;;;;28.25;23.52;;;19.00;78.00;;;;;;1701664;29;20632;-72
2022/03/24 09:00:23;;;;;;;34.45;24.73;;;19.10;78.30;;;;;;1701692;29;20254;-72
2022/03/24 09:01:15;;;;;;;27.87;24.27;;;19.20;78.60;;;;;;1701734;29;20258;-72
2022/03/24 09:02:06;;;;;;;27.55;24.60;;;19.30;78.70;;;;;;1701677;29;20234;-72
2022/03/24 09:02:57;;;;;;;30.67;24.13;;;19.40;79.00;;;;;;1701782;29;20214;-72
2022/03/24 09:03:49;;;;;;;26.40;23.55;;;19.80;78.90;;;;;;1701752;29;20210;-71
2022/03/24 09:04:41;;;;;;;29.35;24.70;;;20.50;78.30;;;;;;1701721;29;20575;-72
2022/03/24 09:05:32;;;;;;;26.55;23.65;;;21.50;76.70;;;;;;1701466;29;20199;-72
2022/03/24 09:06:25;;;;;;;32.47;24.60;;;22.20;75.00;;;;;;1701742;29;20210;-72
2022/03/24 09:07:16;;;;;;;33.47;25.85;;;22.70;73.90;;;;;;1701777;29;20836;-72
2022/03/24 09:08:07;;;;;;;29.90;23.63;;;23.50;72.90;;;;;;1701506;29;20624;-72
2022/03/24 09:08:58;;;;;;;34.83;25.88;;;24.60;71.70;;;;;;1701694;29;20543;-72
2022/03/24 09:09:50;;;;;;;33.40;24.10;;;25.90;70.20;;;;;;1701673;29;20287;-73
2022/03/24 09:10:42;;;;;;;32.42;27.23;;;27.10;68.60;;;;;;1701820;29;20253;-72
2022/03/24 09:11:33;;;;;;;32.97;25.73;;;28.50;67.00;;;;;;1701749;29;20689;-72
2022/03/24 09:12:24;;;;;;;31.17;25.33;;;29.70;64.70;;;;;;1701700;29;20250;-72
2022/03/24 09:13:16;;;;;;;29.40;24.40;;;30.80;62.80;;;;;;1701728;29;20207;-72
2022/03/24 09:14:07;;;;;;;35.05;25.27;;;31.90;61.40;;;;;;1701701;29;20235;-73
2022/03/24 09:14:59;;;;;;;28.23;25.23;;;33.00;60.00;;;;;;1701535;29;20234;-72
2022/03/24 09:15:51;;;;;;;32.92;25.20;;;33.90;58.60;;;;;;1701352;29;20492;-72
2022/03/24 09:16:41;;;;;;;29.15;25.60;;;34.80;57.40;;;;;;1701688;29;20210;-72
2022/03/24 09:17:34;;;;;;;31.80;25.80;;;35.70;56.30;;;;;;1701695;29;20246;-72
2022/03/24 09:18:24;;;;;;;26.23;23.48;;;36.40;55.10;;;;;;1701263;29;20207;-72
2022/03/24 09:19:16;;;;;;;26.97;24.07;;;37.10;54.00;;;;;;1701609;29;20207;-73
2022/03/24 09:20:09;;;;;;;27.80;24.73;;;37.80;53.10;;;;;;1701586;29;20593;-72
2022/03/24 09:21:01;;;;;;;28.75;25.02;;;38.30;52.20;;;;;;1701733;29;20558;-73
2022/03/24 09:21:53;;;;;;;30.38;25.92;;;38.90;51.30;;;;;;1701605;29;20230;-72
2022/03/24 09:22:47;;;;;;;30.27;24.70;;;39.50;50.40;;;;;;1701636;29;20207;-72
2022/03/24 09:23:38;;;;;;;28.02;25.15;;;40.00;49.60;;;;;;1701774;29;20199;-72
2022/03/24 09:24:31;;;;;;;31.27;26.83;;;40.40;48.90;;;;;;1701589;29;20201;-72
2022/03/24 09:25:22;;;;;;;28.33;25.43;;;40.90;48.40;;;;;;1701289;29;20245;-73
2022/03/24 09:26:14;;;;;;;28.80;24.93;;;41.30;47.80;;;;;;1701574;29;20473;-73
2022/03/24 09:27:05;;;;;;;27.87;24.87;;;41.60;47.30;;;;;;1701618;29;20490;-73
2022/03/24 09:27:57;;;;;;;27.33;24.50;;;42.00;46.80;;;;;;1701705;29;20450;-72
2022/03/24 09:28:51;;;;;;;28.37;25.23;;;42.30;46.40;;;;;;1701243;29;20244;-73
2022/03/24 09:29:42;;;;;;;29.50;25.83;;;42.70;46.10;;;;;;1701704;29;20514;-73
2022/03/24 09:30:34;;;;;;;32.50;26.23;;;43.00;45.40;;;;;;1701410;29;20840;-72
2022/03/24 09:31:25;;;;;;;32.67;24.97;;;43.30;45.00;;;;;;1701857;29;20534;-73
2022/03/24 09:32:16;;;;;;;28.47;23.67;;;43.60;44.60;;;;;;1701608;29;20479;-73
2022/03/24 09:33:09;;;;;;;25.60;23.10;;;43.80;44.00;;;;;;1701534;29;20535;-73
2022/03/24 09:33:59;;;;;;;28.80;23.33;;;44.10;43.80;;;;;;1701718;29;20482;-73
2022/03/24 09:34:51;;;;;;;25.40;22.73;;;44.30;43.30;;;;;;1701733;29;20451;-73
2022/03/24 09:35:43;;;;;;;25.50;22.90;;;44.60;42.40;;;;;;1701696;29;20206;-73
2022/03/24 09:36:35;;;;;;;22.43;20.13;;;44.90;41.60;;;;;;1701684;29;20494;-73
2022/03/24 09:37:28;;;;;;;21.80;19.70;;;45.10;41.10;;;;;;1701515;29;20447;-73
2022/03/24 09:38:20;;;;;;;23.00;20.90;;;45.40;40.10;;;;;;1701326;29;20458;-73
2022/03/24 09:39:14;;;;;;;22.83;20.73;;;45.60;40.30;;;;;;1701746;29;20505;-73
2022/03/24 09:40:07;;;;;;;22.00;20.00;;;45.90;39.70;;;;;;1701728;29;20977;-73
2022/03/24 09:40:59;;;;;;;21.07;19.27;;;46.10;39.30;;;;;;1701814;29;20522;-73
2022/03/24 09:41:50;;;;;;;22.50;20.23;;;46.30;38.90;;;;;;1701493;29;20450;-73
2022/03/24 09:42:42;;;;;;;21.20;19.30;;;46.60;38.80;;;;;;1701554;29;20455;-73
2022/03/24 09:43:34;;;;;;;22.57;20.63;;;46.90;38.50;;;;;;1701458;29;20203;-73
2022/03/24 09:44:26;;;;;;;22.23;20.20;;;47.10;38.10;;;;;;1701555;29;20788;-73
2022/03/24 09:45:19;;;;;;;21.47;19.30;;;47.30;38.00;;;;;;1701257;29;20502;-73
2022/03/24 09:46:10;;;;;;;21.87;19.60;;;47.40;38.00;;;;;;1694948;29;20610;-73
2022/03/24 09:47:02;;;;;;;23.03;20.53;;;47.70;38.10;;;;;;1694942;29;20460;-73
2022/03/24 09:47:52;;;;;;;22.07;20.03;;;47.80;37.90;;;;;;1694998;29;20212;-73
2022/03/24 09:48:44;;;;;;;23.03;21.03;;;47.90;38.00;;;;;;1694607;29;20534;-73
2022/03/24 09:49:36;;;;;;;24.47;22.20;;;48.00;37.50;;;;;;1694663;29;20542;-73
2022/03/24 09:50:29;;;;;;;24.10;22.00;;;48.10;37.40;;;;;;1694926;29;20459;-73
2022/03/24 09:51:21;;;;;;;25.07;21.30;;;48.30;37.40;;;;;;1694960;29;21036;-73
2022/03/24 09:52:13;;;;;;;25.60;23.10;;;48.40;37.30;;;;;;1694960;29;20511;-73
2022/03/24 09:53:06;;;;;;;23.87;21.77;;;48.50;37.30;;;;;;1694905;29;20537;-73
2022/03/24 09:53:57;;;;;;;24.10;22.00;;;48.70;37.20;;;;;;1694957;29;20476;-74
2022/03/24 09:54:49;;;;;;;27.03;24.33;;;48.80;37.10;;;;;;1694828;29;20532;-73
2022/03/24 09:55:41;;;;;;;23.30;21.30;;;49.00;37.10;;;;;;1697646;29;20211;-73
2022/03/24 09:56:33;;;;;;;23.33;21.10;;;49.10;36.90;;;;;;1701485;29;20515;-73
2022/03/24 09:57:24;;;;;;;23.50;21.40;;;49.30;36.90;;;;;;1701453;29;20453;-73
2022/03/24 09:58:16;;;;;;;23.90;21.80;;;49.40;36.60;;;;;;1701074;29;20976;-73
2022/03/24 09:59:09;;;;;;;23.47;21.37;;;49.60;36.60;;;;;;1701364;29;20490;-73
2022/03/24 10:00:00;;;;;;;23.97;21.97;;;49.60;36.20;;;;;;1701441;29;20455;-73
2022/03/24 10:00:51;;;;;;;22.77;20.67;;;49.70;36.20;;;;;;1701392;29;20762;-73
2022/03/24 10:01:43;;;;;;;22.87;20.87;;;49.80;36.30;;;;;;1701544;29;20490;-73
2022/03/24 10:02:34;;;;;;;24.70;22.30;;;50.00;36.30;;;;;;1701409;29;20234;-73
2022/03/24 10:03:26;;;;;;;23.70;21.50;;;50.10;36.20;;;;;;1701403;29;20451;-73
2022/03/24 10:04:18;;;;;;;24.33;21.70;;;50.20;36.20;;;;;;1701358;29;20261;-73
2022/03/24 10:05:18;;;;;;;28.67;24.10;;;50.30;36.20;;;;;;1701269;29;20466;-73
2022/03/24 10:06:09;;;;;;;25.87;23.30;;;50.50;36.10;;;;;;1706161;29;20478;-74
2022/03/24 10:07:03;;;;;;;24.17;22.13;;;50.60;36.20;;;;;;1707915;29;20472;-73
2022/03/24 10:07:54;;;;;;;24.30;21.90;;;50.80;36.00;;;;;;1707919;29;20446;-73
2022/03/24 10:08:50;;;;;;;25.60;23.07;;;51.00;35.90;;;;;;1707628;29;20521;-73
2022/03/24 10:09:43;;;;;;;23.97;21.93;;;51.10;35.80;;;;;;1708049;29;20207;-73
2022/03/24 10:10:36;;;;;;;25.03;22.77;;;51.30;36.10;;;;;;1707884;29;20442;-74
2022/03/24 10:11:27;;;;;;;24.60;22.40;;;51.50;35.90;;;;;;1707994;29;20451;-74
2022/03/24 10:12:21;;;;;;;24.60;22.40;;;51.60;35.80;;;;;;1708068;29;20956;-74
2022/03/24 10:13:12;;;;;;;24.10;21.90;;;51.70;35.70;;;;;;1707763;29;20891;-73
2022/03/24 10:14:05;;;;;;;25.20;23.00;;;51.80;35.60;;;;;;1707888;29;20449;-73
2022/03/24 10:14:58;;;;;;;24.20;22.20;;;51.80;35.60;;;;;;1707766;29;20482;-73
2022/03/24 10:15:49;;;;;;;25.03;22.83;;;52.00;35.50;;;;;;1704651;29;20816;-73
2022/03/24 10:16:44;;;;;;;25.33;22.80;;;52.00;35.50;;;;;;1701386;29;20459;-73
2022/03/24 10:17:36;;;;;;;25.73;23.43;;;52.00;35.30;;;;;;1701318;29;20443;-73
2022/03/24 10:18:27;;;;;;;24.83;22.53;;;52.10;35.40;;;;;;1700943;29;20483;-73
2022/03/24 10:19:19;;;;;;;24.00;21.70;;;52.20;35.40;;;;;;1701261;29;20458;-73
2022/03/24 10:20:15;;;;;;;24.27;22.27;;;52.30;35.10;;;;;;1701256;29;20715;-73
2022/03/24 10:21:12;;;;;;;24.53;22.53;;;52.40;35.10;;;;;;1701257;29;20478;-74
2022/03/24 10:22:08;;;;;;;25.43;22.90;;;52.50;35.20;;;;;;1701331;29;20455;-73
2022/03/24 10:23:02;;;;;;;28.57;22.27;;;52.60;35.20;;;;;;1701291;29;20936;-73
2022/03/24 10:23:56;;;;;;;23.53;21.43;;;52.70;35.40;;;;;;1701235;29;20567;-73
2022/03/24 10:24:47;;;;;;;25.90;23.57;;;52.90;35.40;;;;;;1701175;29;20969;-74